Time;durP1;ratioP1;P1;durP2;ratioP2;P2;SDS_P1;SDS_P2;PMS_P1;PMS_P2;Temp;Humidity;BMP_temperature;BMP_pressure;BME280_temperature;BME280_humidity;BME280_pressure;Samples;Min_cycle;Max_cycle;Signal;HPM_P1;HPM_P2
2021/09/06 00:01:46;;;;;;;6.50;5.97;;;25.20;48.30;;;;;;5009182;28;20236;-45
2021/09/06 00:04:12;;;;;;;7.27;6.50;;;25.20;48.20;;;;;;4999808;28;20565;-46
2021/09/06 00:06:40;;;;;;;6.37;5.80;;;25.10;48.70;;;;;;5008682;28;20198;-45
2021/09/06 00:09:06;;;;;;;6.30;5.70;;;25.10;47.80;;;;;;5009869;28;20492;-49
2021/09/06 00:11:32;;;;;;;5.97;5.47;;;25.00;48.30;;;;;;5005214;28;20451;-45
2021/09/06 00:13:57;;;;;;;6.80;6.20;;;24.90;48.20;;;;;;5002638;28;20537;-46
2021/09/06 00:16:23;;;;;;;6.27;5.40;;;25.00;48.40;;;;;;5008999;28;20444;-51
2021/09/06 00:18:49;;;;;;;6.23;5.73;;;24.90;48.10;;;;;;5007603;28;20193;-51
2021/09/06 00:21:14;;;;;;;9.27;6.40;;;24.90;48.20;;;;;;5013809;28;20248;-45
2021/09/06 00:23:40;;;;;;;7.00;6.40;;;24.80;48.30;;;;;;5005040;28;20205;-45
2021/09/06 00:26:06;;;;;;;7.50;6.70;;;24.80;47.70;;;;;;5011673;28;20269;-46
2021/09/06 00:28:31;;;;;;;6.73;6.17;;;24.60;47.90;;;;;;5011068;28;20226;-45
2021/09/06 00:30:58;;;;;;;8.10;6.60;;;24.20;49.30;;;;;;5007664;28;20217;-48
2021/09/06 00:33:23;;;;;;;8.27;6.03;;;24.00;49.60;;;;;;5007683;28;20182;-45
2021/09/06 00:35:49;;;;;;;7.47;6.77;;;23.80;49.90;;;;;;5010833;28;20447;-45
2021/09/06 00:38:17;;;;;;;7.40;6.60;;;23.60;50.70;;;;;;5007192;28;20631;-45
2021/09/06 00:40:47;;;;;;;7.53;6.50;;;23.50;50.50;;;;;;5007406;28;20280;-46
2021/09/06 00:43:13;;;;;;;7.77;6.97;;;23.40;51.10;;;;;;5012014;28;20456;-45
2021/09/06 00:45:39;;;;;;;8.63;7.10;;;23.40;50.90;;;;;;5008949;28;20444;-47
2021/09/06 00:48:06;;;;;;;6.87;6.17;;;23.40;50.90;;;;;;5011006;28;20498;-46
2021/09/06 00:50:32;;;;;;;7.37;6.67;;;23.20;51.40;;;;;;5011297;28;20437;-48
2021/09/06 00:52:58;;;;;;;6.73;6.13;;;23.20;51.30;;;;;;5009886;28;20535;-46
2021/09/06 00:55:23;;;;;;;7.10;6.40;;;23.10;51.60;;;;;;5009434;28;20520;-45
2021/09/06 00:57:51;;;;;;;6.97;6.37;;;22.90;52.00;;;;;;4996933;28;20312;-48
2021/09/06 01:00:17;;;;;;;9.67;6.10;;;22.90;52.30;;;;;;5008924;28;20194;-45
2021/09/06 01:02:43;;;;;;;6.90;6.30;;;22.90;52.00;;;;;;5004271;28;20477;-48
2021/09/06 01:05:10;;;;;;;6.87;6.27;;;22.90;52.20;;;;;;5007770;28;20526;-46
2021/09/06 01:07:36;;;;;;;6.80;6.20;;;22.90;52.10;;;;;;5008583;28;20469;-45
2021/09/06 01:10:08;;;;;;;7.20;6.50;;;22.90;52.00;;;;;;5006645;28;20512;-45
2021/09/06 01:12:34;;;;;;;7.93;6.93;;;22.90;51.70;;;;;;4992601;28;20202;-45
2021/09/06 01:14:59;;;;;;;11.93;6.63;;;22.90;51.60;;;;;;5006164;28;20904;-45
2021/09/06 01:17:25;;;;;;;7.27;6.57;;;22.90;51.80;;;;;;5013324;28;20425;-45
2021/09/06 01:19:51;;;;;;;7.13;6.53;;;22.90;51.50;;;;;;5009266;28;20281;-51
2021/09/06 01:22:18;;;;;;;7.83;7.13;;;22.70;51.50;;;;;;5007348;28;20593;-48
2021/09/06 01:24:45;;;;;;;7.77;7.07;;;22.70;51.80;;;;;;5006976;28;20584;-45
2021/09/06 01:27:11;;;;;;;7.20;6.60;;;22.70;51.80;;;;;;4998111;28;20446;-45
2021/09/06 01:29:36;;;;;;;7.13;6.37;;;22.80;51.80;;;;;;5004707;28;20488;-45
2021/09/06 01:32:05;;;;;;;7.23;6.30;;;22.80;51.70;;;;;;5008275;28;20472;-46
2021/09/06 01:34:30;;;;;;;7.13;6.43;;;22.80;51.50;;;;;;5003010;28;20186;-45
2021/09/06 01:36:56;;;;;;;7.70;6.90;;;22.80;51.70;;;;;;5009172;28;20440;-45
2021/09/06 01:39:22;;;;;;;8.77;6.37;;;22.70;52.10;;;;;;5008303;28;21988;-45
2021/09/06 01:41:47;;;;;;;7.87;7.17;;;22.70;51.80;;;;;;5011665;28;20189;-45
2021/09/06 01:44:13;;;;;;;7.10;6.47;;;22.60;52.10;;;;;;5008410;28;20280;-45
2021/09/06 01:46:38;;;;;;;6.27;5.77;;;22.50;52.20;;;;;;5013089;28;20668;-45
2021/09/06 01:49:04;;;;;;;6.83;6.20;;;22.50;52.40;;;;;;5002911;28;20270;-48
2021/09/06 01:51:30;;;;;;;7.30;6.60;;;22.50;52.00;;;;;;5009498;28;20213;-46
2021/09/06 01:53:56;;;;;;;7.33;6.63;;;22.50;51.90;;;;;;5009855;28;20248;-45
2021/09/06 01:56:22;;;;;;;6.90;6.20;;;22.50;52.00;;;;;;5010454;28;20237;-45
2021/09/06 01:58:48;;;;;;;7.40;6.70;;;22.50;52.70;;;;;;5002908;28;20484;-45
2021/09/06 02:01:14;;;;;;;7.00;6.37;;;22.50;52.30;;;;;;5005385;28;20816;-45
2021/09/06 02:03:40;;;;;;;8.30;6.80;;;22.50;52.20;;;;;;5005698;28;20460;-45
2021/09/06 02:06:06;;;;;;;6.27;5.67;;;22.40;52.40;;;;;;5002820;28;20197;-46
2021/09/06 02:08:32;;;;;;;7.00;5.90;;;22.20;53.00;;;;;;5003504;28;20233;-48
2021/09/06 02:10:57;;;;;;;8.73;7.83;;;22.20;53.10;;;;;;5009888;28;20194;-46
2021/09/06 02:13:23;;;;;;;7.57;6.63;;;21.90;53.10;;;;;;5009577;28;20554;-44
2021/09/06 02:15:49;;;;;;;8.77;6.87;;;22.00;53.40;;;;;;4998194;28;20230;-45
2021/09/06 02:18:14;;;;;;;7.00;6.40;;;21.90;53.20;;;;;;5005524;28;20194;-45
2021/09/06 02:20:40;;;;;;;6.80;6.20;;;22.00;53.10;;;;;;5003390;28;20185;-45
2021/09/06 02:23:07;;;;;;;9.73;6.90;;;22.10;52.80;;;;;;5005335;28;20228;-46
2021/09/06 02:25:32;;;;;;;7.57;6.70;;;22.10;52.60;;;;;;5008756;28;20436;-46
2021/09/06 02:27:58;;;;;;;8.00;6.50;;;22.00;53.00;;;;;;4998324;28;20450;-45
2021/09/06 02:30:24;;;;;;;6.57;5.97;;;22.00;53.10;;;;;;5008432;28;20650;-44
2021/09/06 02:32:49;;;;;;;6.57;5.97;;;22.00;53.00;;;;;;5007948;28;20213;-45
2021/09/06 02:35:15;;;;;;;8.53;6.87;;;22.00;53.40;;;;;;5006925;28;20653;-45
2021/09/06 02:37:41;;;;;;;8.60;6.27;;;22.10;53.20;;;;;;5010706;28;20201;-46
2021/09/06 02:40:07;;;;;;;7.70;7.00;;;22.00;53.00;;;;;;5008814;28;20441;-45
2021/09/06 02:42:33;;;;;;;7.43;6.73;;;22.00;53.10;;;;;;5008919;28;20201;-45
2021/09/06 02:44:58;;;;;;;7.83;7.10;;;21.90;53.60;;;;;;5006854;28;20452;-47
2021/09/06 02:47:24;;;;;;;7.00;6.30;;;21.80;53.80;;;;;;5008495;28;20193;-45
2021/09/06 02:49:49;;;;;;;8.53;7.00;;;21.80;53.80;;;;;;5003659;28;20225;-47
2021/09/06 02:52:15;;;;;;;7.27;6.57;;;21.80;53.70;;;;;;5006482;28;20333;-47
2021/09/06 02:54:41;;;;;;;8.50;6.47;;;21.90;53.30;;;;;;5002832;28;20205;-45
2021/09/06 02:57:06;;;;;;;7.87;7.07;;;21.90;53.00;;;;;;5009276;28;20189;-45
2021/09/06 02:59:32;;;;;;;8.63;6.60;;;22.00;52.70;;;;;;4997005;28;20312;-45
2021/09/06 03:01:58;;;;;;;6.73;6.03;;;22.00;52.00;;;;;;5009514;28;20277;-46
2021/09/06 03:04:23;;;;;;;12.00;8.20;;;22.00;52.50;;;;;;5003360;28;20198;-46
2021/09/06 03:06:49;;;;;;;8.00;6.30;;;22.00;52.30;;;;;;5008097;28;20276;-47
2021/09/06 03:09:15;;;;;;;7.17;6.20;;;22.00;52.60;;;;;;5007226;28;20311;-45
2021/09/06 03:11:41;;;;;;;8.40;6.50;;;21.90;53.00;;;;;;5003312;28;20905;-51
2021/09/06 03:14:06;;;;;;;6.47;5.87;;;21.80;53.80;;;;;;5002303;28;20190;-50
2021/09/06 03:16:32;;;;;;;7.03;6.33;;;21.80;53.40;;;;;;5011413;28;20200;-49
2021/09/06 03:18:58;;;;;;;8.63;7.33;;;21.70;53.70;;;;;;5010018;28;20193;-49
2021/09/06 03:21:23;;;;;;;8.00;6.90;;;21.80;53.20;;;;;;5007122;28;20562;-50
2021/09/06 03:23:49;;;;;;;6.73;6.13;;;21.80;52.40;;;;;;5008770;28;20194;-50
2021/09/06 03:26:15;;;;;;;6.80;6.20;;;21.80;52.30;;;;;;5006203;28;20273;-51
2021/09/06 03:28:42;;;;;;;6.80;6.20;;;21.90;52.60;;;;;;5002789;28;20234;-49
2021/09/06 03:31:07;;;;;;;7.33;6.63;;;21.90;53.10;;;;;;4994513;28;20241;-49
2021/09/06 03:33:33;;;;;;;6.90;6.30;;;21.90;52.60;;;;;;5005905;28;20826;-45
2021/09/06 03:35:59;;;;;;;7.47;6.73;;;21.90;52.60;;;;;;5002144;28;20636;-46
2021/09/06 03:38:24;;;;;;;6.93;6.27;;;22.00;52.30;;;;;;5009032;28;20198;-46
2021/09/06 03:40:50;;;;;;;6.90;6.20;;;22.00;52.10;;;;;;5010471;28;20557;-46
2021/09/06 03:43:15;;;;;;;6.33;5.73;;;22.00;51.80;;;;;;5010161;28;20200;-47
2021/09/06 03:45:41;;;;;;;9.97;6.80;;;22.00;51.90;;;;;;5011266;28;20276;-46
2021/09/06 03:48:07;;;;;;;7.63;6.53;;;22.00;51.40;;;;;;5009085;28;20650;-45
2021/09/06 03:50:32;;;;;;;7.50;6.77;;;21.90;52.00;;;;;;5001978;28;20623;-45
2021/09/06 03:52:58;;;;;;;7.73;6.53;;;21.90;51.80;;;;;;5008753;28;20194;-46
2021/09/06 03:55:23;;;;;;;7.10;6.23;;;21.90;51.90;;;;;;5011898;28;20201;-46
2021/09/06 03:57:49;;;;;;;7.20;6.57;;;21.90;51.70;;;;;;5010738;28;20304;-46
2021/09/06 04:00:15;;;;;;;7.10;6.33;;;22.00;51.70;;;;;;5013019;28;20194;-46
2021/09/06 04:02:40;;;;;;;6.80;6.20;;;21.90;51.90;;;;;;5009638;28;20193;-46
2021/09/06 04:05:06;;;;;;;8.70;6.50;;;21.90;51.50;;;;;;5015120;28;20328;-46
2021/09/06 04:07:32;;;;;;;11.07;7.40;;;21.90;51.60;;;;;;5009895;28;20206;-45
2021/09/06 04:09:57;;;;;;;6.70;6.10;;;21.70;52.30;;;;;;5012921;28;20635;-45
2021/09/06 04:12:23;;;;;;;6.70;6.03;;;21.70;52.30;;;;;;5010571;28;20198;-46
2021/09/06 04:14:50;;;;;;;8.00;7.20;;;21.60;52.40;;;;;;5008481;28;20205;-47
2021/09/06 04:17:16;;;;;;;7.77;6.97;;;21.70;52.40;;;;;;5009213;28;20919;-45
2021/09/06 04:19:41;;;;;;;6.80;6.20;;;21.80;52.70;;;;;;5003592;28;20515;-47
2021/09/06 04:22:07;;;;;;;10.20;6.60;;;21.80;52.10;;;;;;5014026;28;20197;-46
2021/09/06 04:24:33;;;;;;;6.87;6.23;;;21.80;51.70;;;;;;5007688;28;20190;-47
2021/09/06 04:26:59;;;;;;;6.67;6.07;;;21.80;51.80;;;;;;5011746;28;20204;-45
2021/09/06 04:29:25;;;;;;;6.27;5.60;;;21.70;51.80;;;;;;5011714;28;20229;-45
2021/09/06 04:31:51;;;;;;;6.73;6.13;;;21.70;52.40;;;;;;5010156;28;20789;-47
2021/09/06 04:34:16;;;;;;;7.67;6.97;;;21.40;52.00;;;;;;5007367;28;20194;-46
2021/09/06 04:36:42;;;;;;;7.50;6.53;;;21.30;52.70;;;;;;5012027;28;20464;-45
2021/09/06 04:39:08;;;;;;;7.03;6.40;;;21.40;52.50;;;;;;5010648;28;20205;-47
2021/09/06 04:41:34;;;;;;;12.07;6.77;;;21.20;52.50;;;;;;5010933;28;20186;-45
2021/09/06 04:44:00;;;;;;;7.87;7.07;;;21.00;54.00;;;;;;5009547;28;20441;-45
2021/09/06 04:46:26;;;;;;;7.30;6.53;;;21.10;53.90;;;;;;5006621;28;20198;-49
2021/09/06 04:48:52;;;;;;;9.90;6.57;;;21.20;53.50;;;;;;5009492;28;20236;-46
2021/09/06 04:51:17;;;;;;;7.23;6.50;;;21.20;53.50;;;;;;5010218;28;20207;-46
2021/09/06 04:53:46;;;;;;;7.50;6.80;;;21.30;52.80;;;;;;5003774;28;20684;-47
2021/09/06 04:56:13;;;;;;;7.47;6.77;;;21.30;51.90;;;;;;5001282;28;20602;-46
2021/09/06 04:58:39;;;;;;;10.23;6.57;;;21.40;51.90;;;;;;5013339;28;20484;-47
2021/09/06 05:01:04;;;;;;;7.90;6.67;;;21.30;52.50;;;;;;5007148;28;20536;-45
2021/09/06 05:03:30;;;;;;;7.87;7.13;;;21.30;52.10;;;;;;5003581;28;20524;-45
2021/09/06 05:05:58;;;;;;;7.80;7.07;;;21.30;52.00;;;;;;5009603;28;20614;-45
2021/09/06 05:08:25;;;;;;;8.20;7.40;;;21.20;52.40;;;;;;5006508;28;20587;-47
2021/09/06 05:10:50;;;;;;;7.40;6.60;;;21.20;52.30;;;;;;4999504;28;20437;-45
2021/09/06 05:13:16;;;;;;;8.80;6.60;;;20.90;52.70;;;;;;5004560;28;20456;-46
2021/09/06 05:15:42;;;;;;;8.27;6.30;;;20.80;54.40;;;;;;5005066;28;20675;-48
2021/09/06 05:18:08;;;;;;;7.37;5.73;;;20.90;54.40;;;;;;4999521;28;20186;-49
2021/09/06 05:20:33;;;;;;;7.37;6.60;;;21.00;54.10;;;;;;5004346;28;20289;-45
2021/09/06 05:22:59;;;;;;;6.80;6.20;;;21.00;53.70;;;;;;5007185;28;20535;-48
2021/09/06 05:25:25;;;;;;;7.63;6.83;;;21.10;53.70;;;;;;5009188;28;20194;-46
2021/09/06 05:27:50;;;;;;;7.13;6.40;;;21.30;53.20;;;;;;5005768;28;20239;-47
2021/09/06 05:30:16;;;;;;;7.63;6.13;;;21.40;53.20;;;;;;5005228;28;20376;-46
2021/09/06 05:32:41;;;;;;;7.70;6.90;;;21.60;52.90;;;;;;5011153;28;20190;-46
2021/09/06 05:35:07;;;;;;;7.37;6.60;;;21.70;52.50;;;;;;5009932;28;20279;-46
2021/09/06 05:37:33;;;;;;;15.70;7.10;;;21.80;52.10;;;;;;5008387;28;20205;-45
2021/09/06 05:39:58;;;;;;;7.10;6.40;;;21.80;51.70;;;;;;5000854;28;20581;-47
2021/09/06 05:42:24;;;;;;;7.87;6.97;;;21.80;52.00;;;;;;5007011;28;20649;-49
2021/09/06 05:44:50;;;;;;;7.50;6.50;;;21.80;52.00;;;;;;5009300;28;20314;-45
2021/09/06 05:47:16;;;;;;;6.43;5.80;;;21.80;51.60;;;;;;4993274;28;20209;-45
2021/09/06 05:49:42;;;;;;;8.37;6.20;;;21.80;51.60;;;;;;5009988;28;20489;-47
2021/09/06 05:52:08;;;;;;;12.60;6.80;;;21.70;51.80;;;;;;5011284;28;20939;-49
2021/09/06 05:54:34;;;;;;;9.33;6.67;;;21.20;52.70;;;;;;5010757;28;20198;-45
2021/09/06 05:56:59;;;;;;;8.03;6.90;;;21.10;53.10;;;;;;5008526;28;20194;-45
2021/09/06 05:59:25;;;;;;;8.87;7.00;;;20.80;53.60;;;;;;5006446;28;20717;-47
2021/09/06 06:01:51;;;;;;;7.83;7.00;;;20.80;53.60;;;;;;5011890;28;20668;-45
2021/09/06 06:04:16;;;;;;;7.20;6.50;;;20.30;54.80;;;;;;4996415;28;20199;-45
2021/09/06 06:06:42;;;;;;;8.13;6.50;;;20.30;55.40;;;;;;5008103;28;20198;-45
2021/09/06 06:09:07;;;;;;;8.07;7.03;;;19.90;55.70;;;;;;5006682;28;20623;-48
2021/09/06 06:11:37;;;;;;;7.77;6.97;;;20.10;56.10;;;;;;5001087;28;20208;-46
2021/09/06 06:14:03;;;;;;;7.30;6.50;;;20.30;55.50;;;;;;5011240;28;20226;-45
2021/09/06 06:16:30;;;;;;;11.53;7.13;;;19.90;56.00;;;;;;5005148;28;20868;-45
2021/09/06 06:18:56;;;;;;;8.10;7.10;;;19.80;56.70;;;;;;5001753;28;20437;-46
2021/09/06 06:21:22;;;;;;;8.50;7.60;;;19.70;56.90;;;;;;5011528;28;20490;-45
2021/09/06 06:23:47;;;;;;;8.97;7.47;;;19.80;57.50;;;;;;5010004;28;20445;-45
2021/09/06 06:26:13;;;;;;;14.03;9.27;;;19.70;57.10;;;;;;5011951;28;20198;-45
2021/09/06 06:28:39;;;;;;;13.80;7.33;;;19.50;57.60;;;;;;5004614;28;20209;-45
2021/09/06 06:31:04;;;;;;;7.53;6.83;;;19.60;57.40;;;;;;5010837;28;20190;-45
2021/09/06 06:33:30;;;;;;;8.00;7.27;;;19.90;57.20;;;;;;5010351;28;20209;-45
2021/09/06 06:35:58;;;;;;;7.47;6.77;;;20.50;56.40;;;;;;5009125;28;20273;-46
2021/09/06 06:38:24;;;;;;;7.97;7.27;;;20.50;55.90;;;;;;5010493;28;20198;-46
2021/09/06 06:40:49;;;;;;;7.27;6.40;;;20.40;55.70;;;;;;5010320;28;20433;-45
2021/09/06 06:43:15;;;;;;;8.40;7.20;;;20.40;56.20;;;;;;5008606;28;20565;-45
2021/09/06 06:45:40;;;;;;;12.30;8.13;;;20.30;56.10;;;;;;5008371;28;20723;-46
2021/09/06 06:48:06;;;;;;;7.60;6.90;;;20.50;56.10;;;;;;5010705;28;20216;-46
2021/09/06 06:50:32;;;;;;;8.00;7.30;;;20.60;56.30;;;;;;5011423;28;20563;-45
2021/09/06 06:52:57;;;;;;;7.50;6.80;;;20.70;56.10;;;;;;5006519;28;20206;-46
2021/09/06 06:55:23;;;;;;;8.97;7.27;;;21.00;55.70;;;;;;5005407;28;20198;-47
2021/09/06 06:57:49;;;;;;;7.70;6.90;;;21.40;54.90;;;;;;5006999;28;20233;-45
2021/09/06 07:00:15;;;;;;;7.17;6.40;;;21.20;55.50;;;;;;5008990;28;20425;-45
2021/09/06 07:02:40;;;;;;;6.90;6.27;;;21.60;54.90;;;;;;4999602;28;20220;-47
2021/09/06 07:05:07;;;;;;;8.37;6.43;;;21.90;54.40;;;;;;5011111;28;20445;-47
2021/09/06 07:07:32;;;;;;;9.77;7.93;;;22.20;53.70;;;;;;5006438;28;20226;-45
2021/09/06 07:09:59;;;;;;;8.00;7.20;;;22.30;53.10;;;;;;5010923;28;20874;-48
2021/09/06 07:12:25;;;;;;;7.77;7.07;;;22.40;52.70;;;;;;5007190;28;20661;-46
2021/09/06 07:14:50;;;;;;;8.73;7.83;;;22.50;52.60;;;;;;5010996;28;20432;-46
2021/09/06 07:17:16;;;;;;;7.60;6.87;;;22.60;52.90;;;;;;5005127;28;20298;-50
2021/09/06 07:19:42;;;;;;;7.30;6.40;;;22.70;53.40;;;;;;5003940;28;20197;-48
2021/09/06 07:22:08;;;;;;;7.40;6.70;;;22.80;53.00;;;;;;5009788;28;20205;-47
2021/09/06 07:24:33;;;;;;;14.83;6.90;;;23.00;53.10;;;;;;5009992;28;20204;-47
2021/09/06 07:27:00;;;;;;;7.53;6.83;;;23.00;52.70;;;;;;5005971;28;20194;-46
2021/09/06 07:29:26;;;;;;;11.87;6.80;;;23.10;52.30;;;;;;5008344;28;20704;-49
2021/09/06 07:31:52;;;;;;;8.90;6.97;;;23.30;52.40;;;;;;5010783;28;20445;-48
2021/09/06 07:34:17;;;;;;;7.57;6.87;;;23.40;52.20;;;;;;5010038;28;20274;-47
2021/09/06 07:36:43;;;;;;;6.80;5.90;;;23.30;51.50;;;;;;5005670;28;20657;-51
2021/09/06 07:39:10;;;;;;;7.80;6.07;;;23.20;51.80;;;;;;5005974;28;20205;-48
2021/09/06 07:41:36;;;;;;;7.20;5.60;;;23.40;52.40;;;;;;5010233;28;20196;-46
2021/09/06 07:44:02;;;;;;;8.07;7.27;;;23.60;52.10;;;;;;5009380;28;20516;-48
2021/09/06 07:46:27;;;;;;;7.20;6.53;;;23.80;52.00;;;;;;5008419;28;20202;-48
2021/09/06 07:48:53;;;;;;;6.97;5.80;;;23.90;51.30;;;;;;5001195;28;20218;-48
2021/09/06 07:51:19;;;;;;;6.10;5.60;;;24.00;50.80;;;;;;5009009;28;20197;-48
2021/09/06 07:53:45;;;;;;;7.37;6.63;;;24.00;51.20;;;;;;5009674;28;20502;-47
2021/09/06 07:56:10;;;;;;;6.87;6.17;;;24.20;51.50;;;;;;5007767;28;20646;-47
2021/09/06 07:58:36;;;;;;;8.57;7.20;;;24.30;51.40;;;;;;5005254;28;20487;-49
2021/09/06 08:01:02;;;;;;;7.73;6.93;;;24.40;51.20;;;;;;5009363;28;20280;-49
2021/09/06 08:03:27;;;;;;;8.13;7.37;;;24.50;50.80;;;;;;5010276;28;20603;-47
2021/09/06 08:05:53;;;;;;;8.00;7.20;;;24.60;50.60;;;;;;5009182;28;20201;-52
2021/09/06 08:08:19;;;;;;;7.30;6.60;;;24.60;50.50;;;;;;5006800;28;20564;-47
2021/09/06 08:10:45;;;;;;;6.83;6.13;;;24.60;50.40;;;;;;5009756;28;20193;-51
2021/09/06 08:13:11;;;;;;;8.20;6.80;;;24.80;50.50;;;;;;5006250;28;20209;-47
2021/09/06 08:15:37;;;;;;;10.30;6.90;;;24.80;49.90;;;;;;5000134;28;20236;-48
2021/09/06 08:18:04;;;;;;;7.83;6.10;;;24.90;49.80;;;;;;5007806;28;20469;-51
2021/09/06 08:20:29;;;;;;;7.20;6.50;;;25.00;49.80;;;;;;5002305;28;20210;-51
2021/09/06 08:22:55;;;;;;;6.73;6.03;;;25.00;49.20;;;;;;5008520;28;20429;-51
2021/09/06 08:25:21;;;;;;;10.33;6.70;;;25.00;49.20;;;;;;5008805;28;20198;-47
2021/09/06 08:27:47;;;;;;;10.20;6.73;;;25.10;49.30;;;;;;5009158;28;20198;-49
2021/09/06 08:30:14;;;;;;;7.00;6.40;;;25.30;49.30;;;;;;5011934;28;20222;-49
2021/09/06 08:32:43;;;;;;;8.90;6.63;;;25.40;48.70;;;;;;5007014;28;21029;-47
2021/09/06 08:35:10;;;;;;;7.17;6.40;;;25.60;49.00;;;;;;5005550;28;20445;-48
2021/09/06 08:37:35;;;;;;;8.17;7.27;;;25.70;48.90;;;;;;5006481;28;20802;-47
2021/09/06 08:40:02;;;;;;;8.37;6.07;;;25.70;47.40;;;;;;5009250;28;20429;-47
2021/09/06 08:42:28;;;;;;;7.77;6.87;;;25.50;48.30;;;;;;5012816;28;20351;-47
2021/09/06 08:44:53;;;;;;;8.00;7.10;;;25.70;48.30;;;;;;5004257;28;20520;-49
2021/09/06 08:47:19;;;;;;;7.10;6.47;;;25.90;47.80;;;;;;5004875;28;20195;-47
2021/09/06 08:49:45;;;;;;;7.20;6.50;;;26.10;47.90;;;;;;5009844;28;20725;-47
2021/09/06 08:52:11;;;;;;;6.80;6.07;;;26.20;47.50;;;;;;5009740;28;20205;-48
2021/09/06 08:54:37;;;;;;;8.10;6.60;;;26.30;46.20;;;;;;5004121;28;20971;-48
2021/09/06 08:57:04;;;;;;;8.23;7.53;;;26.40;45.80;;;;;;5007197;28;20441;-48
2021/09/06 08:59:29;;;;;;;6.97;6.37;;;26.50;45.70;;;;;;5006093;28;20742;-47
2021/09/06 09:01:56;;;;;;;7.70;6.53;;;26.50;45.70;;;;;;5006836;28;20498;-49
2021/09/06 09:04:24;;;;;;;8.60;7.20;;;26.60;45.40;;;;;;5007709;28;20520;-47
2021/09/06 09:06:55;;;;;;;6.93;6.27;;;26.80;45.60;;;;;;5010047;28;20205;-47
2021/09/06 09:09:29;;;;;;;7.23;6.63;;;26.90;45.00;;;;;;5008651;28;21232;-48
2021/09/06 09:12:06;;;;;;;6.80;6.13;;;26.80;44.00;;;;;;5011882;28;20966;-51
2021/09/06 09:14:36;;;;;;;7.30;6.70;;;26.80;44.00;;;;;;5010794;28;20816;-47
2021/09/06 09:17:03;;;;;;;6.53;5.93;;;26.90;43.10;;;;;;5003002;28;20950;-51
2021/09/06 09:19:28;;;;;;;7.60;6.80;;;27.20;43.70;;;;;;5011661;28;20433;-47
2021/09/06 09:21:56;;;;;;;7.77;6.73;;;27.40;43.00;;;;;;5002202;28;20826;-46
2021/09/06 09:24:23;;;;;;;7.07;6.37;;;27.30;43.00;;;;;;5007763;28;20544;-50
2021/09/06 09:26:57;;;;;;;6.77;6.03;;;27.50;43.30;;;;;;5009081;28;20447;-50
2021/09/06 09:29:23;;;;;;;6.33;5.73;;;27.70;43.50;;;;;;5011595;28;20488;-51
2021/09/06 09:31:54;;;;;;;7.73;6.37;;;27.80;42.90;;;;;;5009336;28;20522;-47
2021/09/06 09:34:20;;;;;;;8.73;6.13;;;28.00;42.30;;;;;;4998211;28;20454;-48
2021/09/06 09:36:47;;;;;;;6.83;6.23;;;28.20;41.50;;;;;;5008871;28;20448;-52
2021/09/06 09:39:14;;;;;;;7.33;6.53;;;28.20;41.10;;;;;;5008606;28;20433;-48
2021/09/06 09:41:43;;;;;;;6.80;6.10;;;28.00;40.10;;;;;;5008377;28;20433;-46
2021/09/06 09:44:25;;;;;;;7.53;6.93;;;28.20;40.60;;;;;;5011150;28;20447;-47
2021/09/06 09:46:53;;;;;;;6.47;5.83;;;28.40;39.90;;;;;;5008130;28;20445;-47
2021/09/06 09:49:19;;;;;;;10.93;5.77;;;28.70;41.40;;;;;;5006231;28;20484;-46
2021/09/06 09:51:45;;;;;;;7.90;6.97;;;28.90;41.10;;;;;;5009676;28;20448;-48
2021/09/06 09:54:10;;;;;;;7.30;6.60;;;29.00;40.20;;;;;;5007104;28;20224;-46
2021/09/06 09:56:36;;;;;;;8.43;6.80;;;29.20;40.30;;;;;;5008026;28;20441;-47
2021/09/06 09:59:02;;;;;;;7.53;6.83;;;29.20;39.40;;;;;;5004532;28;20310;-46
2021/09/06 10:01:32;;;;;;;7.10;6.40;;;29.40;39.80;;;;;;5008692;28;20185;-46
2021/09/06 10:04:00;;;;;;;7.90;6.00;;;29.60;37.50;;;;;;5010491;28;20216;-47
2021/09/06 10:06:27;;;;;;;6.97;6.13;;;29.70;36.10;;;;;;5011173;28;20507;-47
2021/09/06 10:08:54;;;;;;;7.03;6.33;;;29.80;36.90;;;;;;5008845;28;20563;-47
2021/09/06 10:11:20;;;;;;;7.50;6.90;;;29.80;35.50;;;;;;5007678;28;20536;-48
2021/09/06 10:13:45;;;;;;;7.33;6.67;;;29.80;36.50;;;;;;5009192;28;20552;-47
2021/09/06 10:16:13;;;;;;;7.20;6.37;;;30.20;35.80;;;;;;4992758;28;20649;-47
2021/09/06 10:18:40;;;;;;;7.20;6.50;;;29.90;36.00;;;;;;4999248;28;20216;-46
2021/09/06 10:21:24;;;;;;;7.63;7.03;;;29.70;35.20;;;;;;5009699;28;20468;-51
2021/09/06 10:23:52;;;;;;;7.97;7.17;;;29.70;36.60;;;;;;5004124;28;20959;-46
2021/09/06 10:26:17;;;;;;;8.17;7.37;;;29.90;36.40;;;;;;5003622;28;20832;-48
2021/09/06 10:28:43;;;;;;;7.60;7.00;;;30.00;36.40;;;;;;5009581;28;20502;-46
2021/09/06 10:31:19;;;;;;;8.43;7.53;;;30.20;35.60;;;;;;5009749;28;20617;-47
2021/09/06 10:33:59;;;;;;;7.70;7.00;;;30.50;35.70;;;;;;5009304;28;20338;-46
2021/09/06 10:36:25;;;;;;;6.57;6.07;;;30.90;36.00;;;;;;5008747;28;20428;-48
2021/09/06 10:38:59;;;;;;;7.30;6.63;;;30.80;35.70;;;;;;5008473;28;20966;-47
2021/09/06 10:41:25;;;;;;;7.27;6.60;;;31.20;36.20;;;;;;4999110;28;20282;-46
2021/09/06 10:43:58;;;;;;;7.33;6.60;;;31.50;35.80;;;;;;5000885;28;20942;-46
2021/09/06 10:46:26;;;;;;;6.83;6.23;;;31.70;34.50;;;;;;5000340;28;20201;-50
2021/09/06 10:48:53;;;;;;;7.23;6.63;;;31.60;34.20;;;;;;5011148;28;20820;-46
2021/09/06 10:51:26;;;;;;;7.60;6.90;;;31.40;34.90;;;;;;5009866;28;20465;-47
2021/09/06 10:53:57;;;;;;;7.27;6.67;;;31.20;35.10;;;;;;5007053;28;20444;-50
2021/09/06 10:56:30;;;;;;;7.30;6.70;;;31.40;34.50;;;;;;5009403;28;20437;-46
2021/09/06 10:58:56;;;;;;;8.10;7.13;;;31.60;34.30;;;;;;5005567;28;20563;-46
2021/09/06 11:01:22;;;;;;;6.83;6.20;;;31.80;34.30;;;;;;5000467;28;20801;-45
2021/09/06 11:03:50;;;;;;;7.77;7.07;;;31.60;33.20;;;;;;5006073;28;20439;-46
2021/09/06 11:06:16;;;;;;;7.70;7.10;;;31.40;34.10;;;;;;5010705;28;20639;-45
2021/09/06 11:08:44;;;;;;;6.87;6.33;;;31.60;34.20;;;;;;5003076;28;20599;-46
2021/09/06 11:11:10;;;;;;;8.30;7.60;;;31.80;33.80;;;;;;5011337;28;20205;-47
2021/09/06 11:13:47;;;;;;;7.03;6.53;;;32.10;33.50;;;;;;5004864;28;20430;-46
2021/09/06 11:16:15;;;;;;;7.77;7.07;;;32.40;32.50;;;;;;5008978;28;20436;-46
2021/09/06 11:18:46;;;;;;;6.80;6.20;;;32.60;32.10;;;;;;5009838;28;20436;-46
2021/09/06 11:21:13;;;;;;;7.37;6.77;;;32.40;32.10;;;;;;5002273;28;20449;-47
2021/09/06 11:23:41;;;;;;;7.03;6.53;;;32.40;32.20;;;;;;4996180;28;20434;-45
2021/09/06 11:26:09;;;;;;;8.07;7.37;;;32.70;31.50;;;;;;5010632;28;20479;-46
2021/09/06 11:28:46;;;;;;;7.70;7.00;;;32.70;32.40;;;;;;5008954;28;20530;-47
2021/09/06 11:31:17;;;;;;;7.40;6.80;;;32.20;32.00;;;;;;5004175;28;20838;-45
2021/09/06 11:33:42;;;;;;;8.30;7.57;;;32.10;33.90;;;;;;5008931;28;20472;-46
2021/09/06 11:36:17;;;;;;;7.20;6.70;;;32.50;32.50;;;;;;5008230;28;20461;-49
2021/09/06 11:38:43;;;;;;;8.57;7.77;;;32.90;32.70;;;;;;5002121;28;20235;-47
2021/09/06 11:41:10;;;;;;;7.90;7.30;;;33.30;33.00;;;;;;5006550;28;20441;-47
2021/09/06 11:43:35;;;;;;;7.00;6.40;;;33.30;31.70;;;;;;5004285;28;20432;-47
2021/09/06 11:46:02;;;;;;;8.67;7.70;;;33.00;31.10;;;;;;5006106;28;20452;-47
2021/09/06 11:48:40;;;;;;;7.70;7.10;;;32.80;32.40;;;;;;5000766;28;20218;-47
2021/09/06 11:51:07;;;;;;;7.17;6.57;;;32.20;32.80;;;;;;5000439;28;20808;-47
2021/09/06 11:53:32;;;;;;;9.03;7.20;;;31.70;33.90;;;;;;5004411;28;20941;-47
2021/09/06 11:55:58;;;;;;;8.47;7.70;;;32.10;32.80;;;;;;5006609;28;20473;-47
2021/09/06 11:58:28;;;;;;;7.50;6.80;;;31.60;32.80;;;;;;5001785;28;20229;-47
2021/09/06 12:01:04;;;;;;;7.13;6.33;;;32.10;33.20;;;;;;5006179;28;20962;-47
2021/09/06 12:03:30;;;;;;;7.80;7.20;;;32.40;31.90;;;;;;5003378;28;20436;-47
2021/09/06 12:06:07;;;;;;;6.90;6.30;;;32.90;32.60;;;;;;5003568;28;20456;-51
2021/09/06 12:08:33;;;;;;;7.73;7.00;;;33.30;31.00;;;;;;5007928;28;20566;-48
2021/09/06 12:11:11;;;;;;;7.33;6.73;;;33.70;30.20;;;;;;5008680;28;20433;-48
2021/09/06 12:13:39;;;;;;;6.90;6.30;;;33.80;30.20;;;;;;5007038;28;20445;-47
2021/09/06 12:16:08;;;;;;;7.67;6.97;;;34.00;30.60;;;;;;5007361;28;20496;-48
2021/09/06 12:18:42;;;;;;;7.27;6.57;;;33.80;30.00;;;;;;4996856;28;20437;-47
2021/09/06 12:21:13;;;;;;;7.80;7.00;;;33.60;30.00;;;;;;5011874;28;20449;-47
2021/09/06 12:23:42;;;;;;;8.00;7.40;;;33.70;30.00;;;;;;5010853;28;20443;-48
2021/09/06 12:26:09;;;;;;;7.63;7.03;;;33.90;30.80;;;;;;5002534;28;20441;-48
2021/09/06 12:28:56;;;;;;;7.90;7.20;;;34.20;30.50;;;;;;4997960;28;20434;-48
2021/09/06 12:31:23;;;;;;;7.63;6.90;;;34.40;30.60;;;;;;5000360;28;20449;-48
2021/09/06 12:33:49;;;;;;;7.07;6.33;;;34.80;30.60;;;;;;4999261;28;20437;-47
2021/09/06 12:36:16;;;;;;;6.60;6.10;;;34.80;29.50;;;;;;5013715;28;20796;-50
2021/09/06 12:38:42;;;;;;;7.07;6.50;;;34.90;29.10;;;;;;5013869;28;20281;-47
2021/09/06 12:41:07;;;;;;;7.40;6.70;;;34.90;29.30;;;;;;5013437;28;20520;-48
2021/09/06 12:43:33;;;;;;;7.97;7.30;;;34.90;29.30;;;;;;4994534;28;20517;-48